Pagrindinis puslapis
METAR-TAF:

METAR-TAF

Oro uostai :

Narathivatas, Tailandas

platuma: 6-31-12N, ilguma: 101-44-36E, Aukštis: 5 m

Dabartinis oras

Ataskaita buvo paskelbta 5 valandos ir 17 minutes, ne 15:00 UTC
Vėjas 2 kt nuo kintamojo kryptimis
Temperatūra 27°C
Drėgmė 89%
Slėgis 1010 hPa
Matomumas 10 km arba daugiau
Mažai debesys ne aukštis 2000 ft

METAR: VTSC 221500Z VRB02KT 9999 FEW020 27/25 Q1010 NOSIG

Laikas: 03:17 (20:17 UTC)

Prognozė

Ataskaita buvo paskelbta 3 valandos ir 17 minutes, ne 17:00 UTC
Prognozė galioja nuo 22 metu 18 UTC su 23 metu 18 UTC
Vėjas 3 kt iš Pietų
Matomumas 10 km arba daugiau
Mažai debesys ne aukštis 2000 ft
Laikinai
nuo 23 metu 08 UTC su 23 metu 12 UTC
Vėjas 10 kt nuo kintamojo kryptimis su gūsio iki 20 kt
Matomumas: 3000 m
Mažai debesys ne aukštis 1600 ft, Liūtiniai kamuoliniai debesys.
Išsisklaidę debesys ne aukštis 1800 ft
Su prošvaistėmis ne aukštis 10000 ft
perkūnija, lietus

TAF: VTSC 221700Z 2218/2318 18003KT 9999 FEW020 TEMPO 2308/2312 VRB10G20KT 3000 TSRA FEW016CB SCT018 BKN100

Orai ataskaitas ir orų prognozės (METAR, TAF).

turimą stotys yra geltonos ir raudonos taškus žemėlapyje.

Perkelti pele per norėdami pamatyti stoties vardą.

Tada spustelėkite, norėdami matyti oro stebėjimo ir prognozės.

Norėdami pakeisti žemėlapį: spustelėkite ant žalios mygtukų su juodo kryžiaus žemyn,; žalią mygtuką su brūkšneliu, jei norite nutolinti; arba žalių rodyklių gretimoms žemėlapius.


METAR-TAF: